createdAt,value
2023-04-28T00:00:13.301Z,85.34
2023-04-28T00:02:41.792Z,86.43
2023-04-28T00:05:10.856Z,86.13
2023-04-28T00:07:39.306Z,86.42
2023-04-28T00:10:08.667Z,87.40
2023-04-28T00:12:37.037Z,88.00
2023-04-28T00:15:05.721Z,86.51
2023-04-28T00:17:35.624Z,85.35
2023-04-28T00:20:04.711Z,84.09
2023-04-28T00:22:33.233Z,82.96
2023-04-28T00:25:01.675Z,81.97
2023-04-28T00:27:29.798Z,81.54
2023-04-28T00:29:57.966Z,81.72
2023-04-28T00:32:26.296Z,83.05
2023-04-28T00:34:55.950Z,83.17
2023-04-28T00:37:24.014Z,83.50
2023-04-28T00:39:56.521Z,85.01
2023-04-28T00:42:24.953Z,86.49
2023-04-28T00:44:53.004Z,87.29
2023-04-28T00:47:21.161Z,88.03
2023-04-28T00:49:50.764Z,89.17
2023-04-28T00:52:20.374Z,90.45
2023-04-28T00:54:48.996Z,91.13
2023-04-28T00:57:17.186Z,92.03
2023-04-28T00:59:45.440Z,93.18
2023-04-28T01:02:17.712Z,94.74
2023-04-28T01:04:46.818Z,95.01
2023-04-28T01:07:15.116Z,96.24
2023-04-28T01:09:48.067Z,95.86
2023-04-28T01:12:16.400Z,95.77
2023-04-28T01:14:44.757Z,95.51
2023-04-28T01:17:13.251Z,95.04
2023-04-28T01:19:41.496Z,94.07
2023-04-28T01:22:10.822Z,94.04
2023-04-28T01:24:40.352Z,93.91
2023-04-28T01:27:08.555Z,94.61
2023-04-28T01:29:36.700Z,94.76
2023-04-28T01:32:05.508Z,94.88
2023-04-28T01:34:33.721Z,95.39
2023-04-28T01:37:01.896Z,95.86
2023-04-28T01:39:30.095Z,95.96
2023-04-28T01:41:59.470Z,95.88
2023-04-28T01:44:27.798Z,94.50
2023-04-28T01:46:56.352Z,93.10
2023-04-28T01:49:24.820Z,91.89
2023-04-28T01:51:52.921Z,91.20
2023-04-28T01:54:21.682Z,91.48
2023-04-28T01:56:50.079Z,91.57
2023-04-28T01:59:20.939Z,91.82
2023-04-28T02:01:49.170Z,92.69
2023-04-28T02:04:17.829Z,93.03
2023-04-28T02:06:46.510Z,93.31
2023-04-28T02:09:14.829Z,93.51
2023-04-28T02:11:42.990Z,93.59
2023-04-28T02:14:11.133Z,93.71
2023-04-28T02:16:40.555Z,93.79
2023-04-28T02:19:08.672Z,93.29
2023-04-28T02:21:36.733Z,94.02
2023-04-28T02:24:05.088Z,94.37
2023-04-28T02:26:34.716Z,94.82
2023-04-28T02:29:04.400Z,95.03
2023-04-28T02:31:33.148Z,94.86
2023-04-28T02:34:02.818Z,94.16
2023-04-28T02:36:32.144Z,94.08
2023-04-28T02:39:00.341Z,95.18
2023-04-28T02:41:30.016Z,95.61
2023-04-28T02:43:58.252Z,96.37
2023-04-28T02:46:26.432Z,97.93
2023-04-28T02:48:54.597Z,98.35
2023-04-28T02:51:24.117Z,99.01
2023-04-28T02:53:52.279Z,99.21
2023-04-28T02:56:20.622Z,99.37
2023-04-28T02:58:48.838Z,99.22
2023-04-28T03:01:17.063Z,99.90
2023-04-28T03:03:45.350Z,99.72
2023-04-28T03:06:14.043Z,100.00
2023-04-28T03:08:44.098Z,100.00
2023-04-28T03:11:12.425Z,100.00
2023-04-28T03:13:40.654Z,100.00
2023-04-28T03:16:09.287Z,100.00
2023-04-28T03:18:37.668Z,100.00
2023-04-28T03:21:06.266Z,100.00
2023-04-28T03:23:34.430Z,99.75
2023-04-28T03:26:03.966Z,99.80
2023-04-28T03:28:32.394Z,100.00
2023-04-28T03:31:00.950Z,100.00
2023-04-28T03:33:29.815Z,100.00
2023-04-28T03:35:57.972Z,100.00
2023-04-28T03:38:26.155Z,100.00
2023-04-28T03:40:54.507Z,100.00
2023-04-28T03:43:24.116Z,100.00
2023-04-28T03:45:52.549Z,100.00
2023-04-28T03:48:21.194Z,99.88
2023-04-28T03:50:49.636Z,100.00
2023-04-28T03:53:17.628Z,99.49
2023-04-28T03:55:46.302Z,99.49
2023-04-28T03:58:14.478Z,99.45
2023-04-28T04:00:43.874Z,99.15
2023-04-28T04:03:12.330Z,98.97
2023-04-28T04:05:41.728Z,99.04
2023-04-28T04:08:10.507Z,98.66
2023-04-28T04:10:38.542Z,98.04
2023-04-28T04:13:06.692Z,97.92
2023-04-28T04:15:34.921Z,98.05
2023-04-28T04:18:04.526Z,98.15
2023-04-28T04:20:32.679Z,97.90
2023-04-28T04:23:01.591Z,98.05
2023-04-28T04:25:29.701Z,98.06
2023-04-28T04:27:57.855Z,97.50
2023-04-28T04:30:25.937Z,97.69
2023-04-28T04:32:54.213Z,97.52
2023-04-28T04:35:23.883Z,97.23
2023-04-28T04:37:52.284Z,96.69
2023-04-28T04:40:20.633Z,96.62
2023-04-28T04:42:48.770Z,96.48
2023-04-28T04:45:17.466Z,96.40
2023-04-28T04:47:45.834Z,96.34
2023-04-28T04:50:14.197Z,96.26
2023-04-28T04:52:43.660Z,96.27
2023-04-28T04:55:12.463Z,95.55
2023-04-28T04:57:40.582Z,95.65
2023-04-28T05:00:09.828Z,95.02
2023-04-28T05:02:38.359Z,94.80
2023-04-28T05:05:19.762Z,95.10
2023-04-28T05:07:51.396Z,94.46
2023-04-28T05:10:19.584Z,93.79
2023-04-28T05:12:49.098Z,93.02
2023-04-28T05:15:17.660Z,92.76
2023-04-28T05:17:46.091Z,93.01
2023-04-28T05:20:14.289Z,92.90
2023-04-28T05:22:42.398Z,92.53
2023-04-28T05:25:12.153Z,92.34
2023-04-28T05:27:41.237Z,91.77
2023-04-28T05:30:10.865Z,90.88
2023-04-28T05:32:40.058Z,90.67
2023-04-28T05:35:08.803Z,91.16
2023-04-28T05:37:37.814Z,90.28
2023-04-28T05:40:08.028Z,88.84
2023-04-28T05:42:37.653Z,89.13
2023-04-28T05:45:07.106Z,88.90
2023-04-28T05:47:35.311Z,88.23
2023-04-28T05:50:03.444Z,87.06
2023-04-28T05:52:31.829Z,86.64
2023-04-28T05:55:00.012Z,86.05
2023-04-28T05:57:29.346Z,84.53
2023-04-28T06:00:01.518Z,83.97
2023-04-28T06:02:29.839Z,83.39
2023-04-28T06:04:58.128Z,83.44
2023-04-28T06:07:26.386Z,83.60
2023-04-28T06:09:54.559Z,81.43
2023-04-28T06:12:22.954Z,78.35
2023-04-28T06:14:53.080Z,77.54
2023-04-28T06:17:22.723Z,76.76
2023-04-28T06:19:51.449Z,75.38
2023-04-28T06:22:19.569Z,73.99
2023-04-28T06:24:48.019Z,73.35
2023-04-28T06:27:16.309Z,68.11
2023-04-28T06:29:44.477Z,66.33
2023-04-28T06:32:12.588Z,64.08
2023-04-28T06:34:42.072Z,62.08
2023-04-28T06:37:10.300Z,62.98
2023-04-28T06:39:38.557Z,61.89
2023-04-28T06:42:07.372Z,61.07
2023-04-28T06:44:36.558Z,61.36
2023-04-28T06:47:05.482Z,59.83
2023-04-28T06:49:33.712Z,60.08
2023-04-28T06:52:03.371Z,62.03
2023-04-28T06:54:31.954Z,57.84
2023-04-28T06:57:00.300Z,55.17
2023-04-28T06:59:28.489Z,53.50
2023-04-28T07:01:57.218Z,54.68
2023-04-28T07:04:25.810Z,54.67
2023-04-28T07:06:54.131Z,54.03
2023-04-28T07:09:23.920Z,54.55
2023-04-28T07:11:52.197Z,55.83
2023-04-28T07:14:20.315Z,53.33
2023-04-28T07:16:48.708Z,53.58
2023-04-28T07:19:17.083Z,52.53
2023-04-28T07:21:46.276Z,50.50
2023-04-28T07:24:15.305Z,51.23
2023-04-28T07:26:45.408Z,51.88
2023-04-28T07:29:15.086Z,52.39
2023-04-28T07:31:43.650Z,49.54
2023-04-28T07:34:11.960Z,48.51
2023-04-28T07:36:40.159Z,46.61
2023-04-28T07:39:08.253Z,48.41
2023-04-28T07:41:38.380Z,47.16
2023-04-28T07:44:09.310Z,43.90
2023-04-28T07:46:37.797Z,42.42
2023-04-28T07:49:06.363Z,42.94
2023-04-28T07:51:34.763Z,42.73
2023-04-28T07:54:02.872Z,43.26
2023-04-28T07:56:31.773Z,42.45
2023-04-28T07:59:00.385Z,42.88
2023-04-28T08:01:30.345Z,41.46
2023-04-28T08:03:58.699Z,42.21
2023-04-28T08:06:27.265Z,40.00
2023-04-28T08:08:56.492Z,40.09
2023-04-28T08:11:24.775Z,40.48
2023-04-28T08:13:53.216Z,40.16
2023-04-28T08:16:22.650Z,38.32
2023-04-28T08:18:52.392Z,35.38
2023-04-28T08:21:20.641Z,33.53
2023-04-28T08:23:48.693Z,33.41
2023-04-28T08:26:16.870Z,35.91
2023-04-28T08:28:45.109Z,34.72
2023-04-28T08:31:13.133Z,33.82
2023-04-28T08:33:44.661Z,35.55
2023-04-28T08:36:15.172Z,37.72
2023-04-28T08:38:44.260Z,36.96
2023-04-28T08:41:13.916Z,36.30
2023-04-28T08:43:43.888Z,37.18
2023-04-28T08:46:11.979Z,34.84
2023-04-28T08:48:42.937Z,35.36
2023-04-28T08:51:16.082Z,34.96
2023-04-28T08:56:26.429Z,35.55
2023-04-28T08:58:55.411Z,35.59
2023-04-28T09:01:23.874Z,38.24
2023-04-28T09:03:52.551Z,36.68
2023-04-28T09:06:23.188Z,33.58
2023-04-28T09:08:51.324Z,36.00
2023-04-28T09:11:19.487Z,34.11
2023-04-28T09:13:47.746Z,33.06
2023-04-28T09:16:16.342Z,32.91
2023-04-28T09:18:57.861Z,34.00
2023-04-28T09:21:27.580Z,38.21
2023-04-28T09:23:55.685Z,32.78
2023-04-28T09:26:24.664Z,34.78
2023-04-28T09:28:57.314Z,34.83
2023-04-28T09:31:28.264Z,36.28
2023-04-28T09:33:59.971Z,33.57
2023-04-28T09:36:30.881Z,35.38
2023-04-28T09:39:00.242Z,34.77
2023-04-28T09:41:38.511Z,33.16
2023-04-28T09:44:14.382Z,37.68
2023-04-28T09:46:43.429Z,35.87
2023-04-28T09:49:15.471Z,36.99
2023-04-28T09:51:45.120Z,34.49
2023-04-28T09:54:17.605Z,31.14
2023-04-28T09:56:48.493Z,34.02
2023-04-28T09:59:18.311Z,35.82
2023-04-28T10:01:47.260Z,37.89
2023-04-28T10:04:16.607Z,36.80
2023-04-28T10:06:46.860Z,34.64
2023-04-28T10:09:16.635Z,34.47
2023-04-28T10:11:45.163Z,34.35
2023-04-28T10:14:13.710Z,33.14
2023-04-28T10:16:42.024Z,33.82
2023-04-28T10:19:11.280Z,32.17
2023-04-28T10:21:49.354Z,29.29
2023-04-28T10:24:28.112Z,33.63
2023-04-28T10:27:05.443Z,31.86
2023-04-28T10:29:34.574Z,31.81
2023-04-28T10:32:33.455Z,33.58
2023-04-28T10:35:36.465Z,34.92
2023-04-28T10:38:06.349Z,32.19
2023-04-28T10:40:36.817Z,32.90
2023-04-28T10:43:05.881Z,33.74
2023-04-28T10:46:07.309Z,31.49
2023-04-28T10:48:56.586Z,33.91
2023-04-28T10:51:35.253Z,35.58
2023-04-28T10:54:28.484Z,30.56
2023-04-28T10:57:20.703Z,31.49
2023-04-28T10:59:50.526Z,32.09
2023-04-28T11:02:39.575Z,35.12
2023-04-28T11:05:16.514Z,31.41
2023-04-28T11:08:29.469Z,29.16
2023-04-28T11:11:17.134Z,34.74
2023-04-28T11:13:48.231Z,32.50
2023-04-28T11:16:18.673Z,30.75
2023-04-28T11:19:11.460Z,29.54
2023-04-28T11:21:41.379Z,30.30
2023-04-28T11:24:12.728Z,28.47
2023-04-28T11:26:41.501Z,32.12
2023-04-28T11:29:11.863Z,33.34
2023-04-28T11:31:40.247Z,33.21
2023-04-28T11:34:12.142Z,31.53
2023-04-28T11:36:41.465Z,31.39
2023-04-28T11:39:11.470Z,29.84
2023-04-28T11:41:41.894Z,29.66
2023-04-28T11:44:16.055Z,32.69
2023-04-28T11:46:51.036Z,31.78
2023-04-28T11:49:20.883Z,33.07
2023-04-28T11:51:50.440Z,32.15
2023-04-28T11:54:22.894Z,30.78
2023-04-28T11:56:51.294Z,30.88
2023-04-28T11:59:25.888Z,28.74
2023-04-28T12:01:57.271Z,30.84
2023-04-28T12:04:30.587Z,30.90
2023-04-28T12:07:03.059Z,29.00
2023-04-28T12:09:31.598Z,31.81
2023-04-28T12:12:04.727Z,33.82
2023-04-28T12:14:54.601Z,29.50
2023-04-28T12:17:26.826Z,27.92
2023-04-28T12:19:55.371Z,31.38
2023-04-28T12:22:24.030Z,32.44
2023-04-28T12:25:08.506Z,34.49
2023-04-28T12:27:39.277Z,33.06
2023-04-28T12:30:32.760Z,31.74
2023-04-28T12:33:00.950Z,29.23
2023-04-28T12:35:30.641Z,30.86
2023-04-28T12:37:59.710Z,28.68
2023-04-28T12:40:27.970Z,28.04
2023-04-28T12:42:57.088Z,27.15
2023-04-28T12:45:25.383Z,27.79
2023-04-28T12:47:55.464Z,25.65
2023-04-28T12:50:24.381Z,25.03
2023-04-28T12:52:52.507Z,23.14
2023-04-28T12:55:20.549Z,26.68
2023-04-28T12:57:48.772Z,24.71
2023-04-28T13:00:17.336Z,25.67
2023-04-28T13:02:46.731Z,24.30
2023-04-28T13:05:16.506Z,21.63
2023-04-28T13:07:45.399Z,18.82
2023-04-28T13:10:13.876Z,18.24
2023-04-28T13:12:42.615Z,15.45
2023-04-28T13:15:11.993Z,13.03
2023-04-28T13:17:40.317Z,14.44
2023-04-28T13:20:09.761Z,12.22
2023-04-28T13:22:40.050Z,10.44
2023-04-28T13:25:09.456Z,10.26
2023-04-28T13:27:38.065Z,11.96
2023-04-28T13:30:08.866Z,10.44
2023-04-28T13:32:36.955Z,11.10
2023-04-28T13:35:05.525Z,10.22
2023-04-28T13:37:33.606Z,9.83
2023-04-28T13:40:04.796Z,10.07
2023-04-28T13:42:33.022Z,9.24
2023-04-28T13:45:01.130Z,8.87
2023-04-28T13:47:29.557Z,8.35
2023-04-28T13:50:00.209Z,9.38
2023-04-28T13:52:28.346Z,7.69
2023-04-28T13:54:56.429Z,7.75
2023-04-28T13:57:26.005Z,8.03
2023-04-28T13:59:54.132Z,8.13
2023-04-28T14:02:22.453Z,8.74
2023-04-28T14:04:51.553Z,7.35
2023-04-28T14:07:20.216Z,8.06
2023-04-28T14:09:48.540Z,7.13
2023-04-28T14:12:17.017Z,6.85
2023-04-28T14:14:49.080Z,7.03
2023-04-28T14:17:17.523Z,6.83
2023-04-28T14:19:45.972Z,9.03
2023-04-28T14:22:14.052Z,9.77
2023-04-28T14:24:43.365Z,7.36
2023-04-28T14:27:11.583Z,7.03
2023-04-28T14:29:39.862Z,8.53
2023-04-28T14:32:09.410Z,7.18
2023-04-28T14:34:37.672Z,6.64
2023-04-28T14:37:05.858Z,6.66
2023-04-28T14:39:33.938Z,7.83
2023-04-28T14:42:02.009Z,7.75
2023-04-28T14:44:30.535Z,7.68
2023-04-28T14:47:00.176Z,9.08
2023-04-28T14:49:30.073Z,6.70
2023-04-28T14:52:00.082Z,6.60
2023-04-28T14:54:28.228Z,7.63
2023-04-28T14:56:56.423Z,7.53
2023-04-28T14:59:24.490Z,7.67
2023-04-28T15:01:53.053Z,7.08
2023-04-28T15:04:22.129Z,8.50
2023-04-28T15:06:51.788Z,7.54
2023-04-28T15:09:19.822Z,9.00
2023-04-28T15:11:48.097Z,7.63
2023-04-28T15:14:16.583Z,7.57
2023-04-28T15:16:45.353Z,8.20
2023-04-28T15:19:13.406Z,7.46
2023-04-28T15:21:41.954Z,8.34
2023-04-28T15:24:11.456Z,7.90
2023-04-28T15:26:39.674Z,9.71
2023-04-28T15:29:07.731Z,8.20
2023-04-28T15:31:36.001Z,8.01
2023-04-28T15:34:04.302Z,8.81
2023-04-28T15:36:32.563Z,9.92
2023-04-28T15:39:00.534Z,9.62
2023-04-28T15:41:30.072Z,8.83
2023-04-28T15:43:58.382Z,8.40
2023-04-28T15:46:26.577Z,9.83
2023-04-28T15:48:55.155Z,8.67
2023-04-28T15:51:23.642Z,8.96
2023-04-28T15:53:51.943Z,10.08
2023-04-28T15:56:20.459Z,12.24
2023-04-28T15:58:50.750Z,9.29
2023-04-28T16:01:19.287Z,11.31
2023-04-28T16:03:48.355Z,10.30
2023-04-28T16:06:16.894Z,9.89
2023-04-28T16:08:45.068Z,11.49
2023-04-28T16:11:19.476Z,10.38
2023-04-28T16:13:50.090Z,9.25
2023-04-28T16:16:18.207Z,9.38
2023-04-28T16:18:46.362Z,10.83
2023-04-28T16:21:17.359Z,10.75
2023-04-28T16:23:45.506Z,10.64
2023-04-28T16:26:13.761Z,11.77
2023-04-28T16:28:41.878Z,12.15
2023-04-28T16:31:13.357Z,11.68
2023-04-28T16:33:41.467Z,12.29
2023-04-28T16:36:09.720Z,13.10
2023-04-28T16:38:37.862Z,13.46
2023-04-28T16:41:06.691Z,14.15
2023-04-28T16:43:36.267Z,14.23
2023-04-28T16:46:04.569Z,15.44
2023-04-28T16:48:34.282Z,15.64
2023-04-28T16:51:02.515Z,16.81
2023-04-28T16:53:30.731Z,17.65
2023-04-28T16:55:58.890Z,19.08
2023-04-28T16:58:27.235Z,19.43
2023-04-28T17:00:55.413Z,19.78
2023-04-28T17:03:23.725Z,20.95
2023-04-28T17:05:53.345Z,21.92
2023-04-28T17:08:21.486Z,22.38
2023-04-28T17:10:49.617Z,23.03
2023-04-28T17:13:17.796Z,23.95
2023-04-28T17:15:45.858Z,24.94
2023-04-28T17:18:14.180Z,25.52
2023-04-28T17:20:43.057Z,26.36
2023-04-28T17:23:12.847Z,27.09
2023-04-28T17:25:41.023Z,28.35
2023-04-28T17:28:09.214Z,29.01
2023-04-28T17:30:38.382Z,30.24
2023-04-28T17:33:06.868Z,31.69
2023-04-28T17:35:35.017Z,31.97
2023-04-28T17:38:03.180Z,33.01
2023-04-28T17:40:32.756Z,34.15
2023-04-28T17:43:00.900Z,34.96
2023-04-28T17:45:29.038Z,35.76
2023-04-28T17:48:00.305Z,36.27
2023-04-28T17:50:28.784Z,37.13
2023-04-28T17:52:56.931Z,37.77
2023-04-28T17:55:25.070Z,38.45
2023-04-28T17:57:54.586Z,38.80
2023-04-28T18:00:22.885Z,39.56
2023-04-28T18:02:52.655Z,40.00
2023-04-28T18:05:23.236Z,39.89
2023-04-28T18:07:51.667Z,40.20
2023-04-28T18:10:20.103Z,40.70
2023-04-28T18:12:48.214Z,40.69
2023-04-28T18:15:17.854Z,41.74
2023-04-28T18:17:45.994Z,41.95
2023-04-28T18:20:14.643Z,42.72
2023-04-28T18:22:42.959Z,43.15
2023-04-28T18:25:16.840Z,43.44
2023-04-28T18:27:44.983Z,44.21
2023-04-28T18:30:16.054Z,44.88
2023-04-28T18:32:45.688Z,45.00
2023-04-28T18:35:15.164Z,45.27
2023-04-28T18:37:44.941Z,45.40
2023-04-28T18:40:13.476Z,45.86
2023-04-28T18:42:41.606Z,46.21
2023-04-28T18:47:45.219Z,46.54
2023-04-28T18:50:13.402Z,47.11
2023-04-28T18:52:41.514Z,48.33
2023-04-28T18:55:09.801Z,48.64
2023-04-28T18:57:39.678Z,49.44
2023-04-28T19:00:09.827Z,49.53
2023-04-28T19:02:38.235Z,49.17
2023-04-28T19:05:08.478Z,49.57
2023-04-28T19:07:36.817Z,50.55
2023-04-28T19:10:05.530Z,50.79
2023-04-28T19:12:33.824Z,50.82
2023-04-28T19:15:02.274Z,51.14
2023-04-28T19:17:31.025Z,50.68
2023-04-28T19:19:59.499Z,50.25
2023-04-28T19:22:33.819Z,51.53
2023-04-28T19:25:02.255Z,53.54
2023-04-28T19:27:32.345Z,55.45
2023-04-28T19:30:00.899Z,59.54
2023-04-28T19:32:30.183Z,64.55
2023-04-28T19:35:00.392Z,66.43
2023-04-28T19:37:30.821Z,67.65
2023-04-28T19:40:00.311Z,68.85
2023-04-28T19:42:28.579Z,69.10
2023-04-28T19:44:58.160Z,68.96
2023-04-28T19:47:27.296Z,68.63
2023-04-28T19:49:56.216Z,69.45
2023-04-28T19:52:24.670Z,68.30
2023-04-28T19:54:53.563Z,66.89
2023-04-28T19:57:23.642Z,64.43
2023-04-28T19:59:51.947Z,63.04
2023-04-28T20:02:21.275Z,62.49
2023-04-28T20:04:50.335Z,63.38
2023-04-28T20:07:18.556Z,63.05
2023-04-28T20:09:46.726Z,62.03
2023-04-28T20:12:15.345Z,62.99
2023-04-28T20:14:44.887Z,63.99
2023-04-28T20:17:12.977Z,63.90
2023-04-28T20:19:41.116Z,63.99
2023-04-28T20:22:09.564Z,65.12
2023-04-28T20:24:38.578Z,65.72
2023-04-28T20:27:07.291Z,67.04
2023-04-28T20:29:35.864Z,67.80
2023-04-28T20:32:06.401Z,68.78
2023-04-28T20:34:35.156Z,69.36
2023-04-28T20:37:06.412Z,69.22
2023-04-28T20:39:34.986Z,69.54
2023-04-28T20:42:03.733Z,69.30
2023-04-28T20:44:32.299Z,69.28
2023-04-28T20:47:01.622Z,69.22
2023-04-28T20:49:31.517Z,69.84
2023-04-28T20:52:04.019Z,70.31
2023-04-28T20:54:32.819Z,70.60
2023-04-28T20:57:01.849Z,71.15
2023-04-28T20:59:32.348Z,72.33
2023-04-28T21:02:00.999Z,72.70
2023-04-28T21:04:30.695Z,73.62
2023-04-28T21:06:58.828Z,73.67
2023-04-28T21:09:27.013Z,73.72
2023-04-28T21:11:55.182Z,74.42
2023-04-28T21:14:23.382Z,73.92
2023-04-28T21:16:52.079Z,74.04
2023-04-28T21:19:20.256Z,73.60
2023-04-28T21:21:49.776Z,73.50
2023-04-28T21:24:17.884Z,74.02
2023-04-28T21:26:46.555Z,77.01
2023-04-28T21:29:15.521Z,76.28
2023-04-28T21:31:43.625Z,76.16
2023-04-28T21:34:11.883Z,75.93
2023-04-28T21:36:40.383Z,75.00
2023-04-28T21:39:10.523Z,74.91
2023-04-28T21:41:38.696Z,75.90
2023-04-28T21:44:06.742Z,75.66
2023-04-28T21:46:36.238Z,75.58
2023-04-28T21:49:04.379Z,76.51
2023-04-28T21:51:32.879Z,76.65
2023-04-28T21:54:01.559Z,77.55
2023-04-28T21:56:31.016Z,77.19
2023-04-28T21:59:00.139Z,77.36
2023-04-28T22:01:28.904Z,77.76
2023-04-28T22:03:57.368Z,78.51
2023-04-28T22:06:26.389Z,78.06
2023-04-28T22:08:54.571Z,78.13
2023-04-28T22:11:23.286Z,78.45
2023-04-28T22:13:52.808Z,77.91
2023-04-28T22:16:21.797Z,77.71
2023-04-28T22:18:50.054Z,78.54
2023-04-28T22:21:19.183Z,79.44
2023-04-28T22:23:47.390Z,80.61
2023-04-28T22:26:16.316Z,81.36
2023-04-28T22:28:44.405Z,81.29
2023-04-28T22:31:14.407Z,81.14
2023-04-28T22:33:42.566Z,80.70
2023-04-28T22:36:10.706Z,80.81
2023-04-28T22:38:38.752Z,80.93
2023-04-28T22:41:07.028Z,80.67
2023-04-28T22:43:35.217Z,80.75
2023-04-28T22:46:03.605Z,80.54
2023-04-28T22:48:33.507Z,80.80
2023-04-28T22:51:01.878Z,81.21
2023-04-28T22:53:30.104Z,81.67
2023-04-28T22:55:58.438Z,81.04
2023-04-28T22:58:26.512Z,81.68
2023-04-28T23:00:54.657Z,80.78
2023-04-28T23:03:23.009Z,80.43
2023-04-28T23:05:52.683Z,81.33
2023-04-28T23:08:20.826Z,81.15
2023-04-28T23:10:49.038Z,82.87
2023-04-28T23:13:17.221Z,83.56
2023-04-28T23:15:45.380Z,85.08
2023-04-28T23:18:13.551Z,85.18
2023-04-28T23:20:41.717Z,85.66
2023-04-28T23:23:11.291Z,86.01
2023-04-28T23:25:42.738Z,86.70
2023-04-28T23:28:11.038Z,87.18
2023-04-28T23:30:39.193Z,87.66
2023-04-28T23:33:07.390Z,87.71
2023-04-28T23:35:35.554Z,88.10
2023-04-28T23:38:03.864Z,88.05
2023-04-28T23:40:33.402Z,89.28
2023-04-28T23:43:01.524Z,89.13
2023-04-28T23:45:29.721Z,89.70
2023-04-28T23:47:57.864Z,88.91
2023-04-28T23:50:26.238Z,89.10
2023-04-28T23:52:54.447Z,87.74
2023-04-28T23:55:22.598Z,87.43
2023-04-28T23:57:52.162Z,86.76
